sensor_id;sensor_type;location;lat;lon;timestamp;temperature;humidity
14517;DHT22;7344;50.864;4.362;2023-04-24T00:01:43;9.90;99.90
14517;DHT22;7344;50.864;4.362;2023-04-24T00:04:08;10.00;99.90
14517;DHT22;7344;50.864;4.362;2023-04-24T00:06:37;10.00;99.90
14517;DHT22;7344;50.864;4.362;2023-04-24T00:09:03;10.00;99.90
14517;DHT22;7344;50.864;4.362;2023-04-24T00:11:29;10.00;99.90
14517;DHT22;7344;50.864;4.362;2023-04-24T00:13:56;10.10;99.90
14517;DHT22;7344;50.864;4.362;2023-04-24T00:16:22;10.10;99.90
14517;DHT22;7344;50.864;4.362;2023-04-24T00:18:48;10.00;99.90
14517;DHT22;7344;50.864;4.362;2023-04-24T00:21:14;10.00;99.90
14517;DHT22;7344;50.864;4.362;2023-04-24T00:23:41;9.90;99.90
14517;DHT22;7344;50.864;4.362;2023-04-24T00:26:07;9.90;99.90
14517;DHT22;7344;50.864;4.362;2023-04-24T00:28:32;9.90;99.90
14517;DHT22;7344;50.864;4.362;2023-04-24T00:30:58;9.90;99.90
14517;DHT22;7344;50.864;4.362;2023-04-24T00:33:23;9.90;99.90
14517;DHT22;7344;50.864;4.362;2023-04-24T00:35:49;9.90;99.90
14517;DHT22;7344;50.864;4.362;2023-04-24T00:38:15;9.80;99.90
14517;DHT22;7344;50.864;4.362;2023-04-24T00:40:40;9.80;99.90
14517;DHT22;7344;50.864;4.362;2023-04-24T00:43:06;9.70;99.90
14517;DHT22;7344;50.864;4.362;2023-04-24T00:45:32;9.80;99.90
14517;DHT22;7344;50.864;4.362;2023-04-24T00:47:58;9.70;99.90
14517;DHT22;7344;50.864;4.362;2023-04-24T00:50:24;9.70;99.90
14517;DHT22;7344;50.864;4.362;2023-04-24T00:52:50;9.80;99.90
14517;DHT22;7344;50.864;4.362;2023-04-24T00:55:16;9.90;99.90
14517;DHT22;7344;50.864;4.362;2023-04-24T00:57:43;9.80;99.90
14517;DHT22;7344;50.864;4.362;2023-04-24T01:00:09;9.80;99.90
14517;DHT22;7344;50.864;4.362;2023-04-24T01:02:39;9.80;99.90
14517;DHT22;7344;50.864;4.362;2023-04-24T01:05:09;9.80;99.90
14517;DHT22;7344;50.864;4.362;2023-04-24T01:07:35;9.80;99.90
14517;DHT22;7344;50.864;4.362;2023-04-24T01:10:02;9.90;99.90
14517;DHT22;7344;50.864;4.362;2023-04-24T01:12:27;9.80;99.90
14517;DHT22;7344;50.864;4.362;2023-04-24T01:14:54;9.80;99.90
14517;DHT22;7344;50.864;4.362;2023-04-24T01:17:20;9.80;99.90
14517;DHT22;7344;50.864;4.362;2023-04-24T01:19:46;9.80;99.90
14517;DHT22;7344;50.864;4.362;2023-04-24T01:22:14;9.70;99.90
14517;DHT22;7344;50.864;4.362;2023-04-24T01:24:40;9.60;99.90
14517;DHT22;7344;50.864;4.362;2023-04-24T01:27:06;9.60;99.90
14517;DHT22;7344;50.864;4.362;2023-04-24T01:29:32;9.50;99.90
14517;DHT22;7344;50.864;4.362;2023-04-24T01:31:58;9.50;99.90
14517;DHT22;7344;50.864;4.362;2023-04-24T01:34:24;9.50;99.90
14517;DHT22;7344;50.864;4.362;2023-04-24T01:36:50;9.50;99.90
14517;DHT22;7344;50.864;4.362;2023-04-24T01:39:16;9.50;99.90
14517;DHT22;7344;50.864;4.362;2023-04-24T01:41:42;9.50;99.90
14517;DHT22;7344;50.864;4.362;2023-04-24T01:44:07;9.50;99.90
14517;DHT22;7344;50.864;4.362;2023-04-24T01:46:33;9.40;99.90
14517;DHT22;7344;50.864;4.362;2023-04-24T01:49:01;9.50;99.90
14517;DHT22;7344;50.864;4.362;2023-04-24T01:51:27;9.50;99.90
14517;DHT22;7344;50.864;4.362;2023-04-24T01:53:52;9.40;99.90
14517;DHT22;7344;50.864;4.362;2023-04-24T01:56:20;9.50;99.90
14517;DHT22;7344;50.864;4.362;2023-04-24T01:58:47;9.40;99.90
14517;DHT22;7344;50.864;4.362;2023-04-24T02:01:19;9.50;99.90
14517;DHT22;7344;50.864;4.362;2023-04-24T02:03:45;9.50;99.90
14517;DHT22;7344;50.864;4.362;2023-04-24T02:06:11;9.50;99.90
14517;DHT22;7344;50.864;4.362;2023-04-24T02:08:36;9.40;99.90
14517;DHT22;7344;50.864;4.362;2023-04-24T02:11:02;9.40;99.90
14517;DHT22;7344;50.864;4.362;2023-04-24T02:13:28;9.40;99.90
14517;DHT22;7344;50.864;4.362;2023-04-24T02:15:54;9.40;99.90
14517;DHT22;7344;50.864;4.362;2023-04-24T02:18:19;9.40;99.90
14517;DHT22;7344;50.864;4.362;2023-04-24T02:20:46;9.40;99.90
14517;DHT22;7344;50.864;4.362;2023-04-24T02:23:11;9.40;99.90
14517;DHT22;7344;50.864;4.362;2023-04-24T02:25:38;9.50;99.90
14517;DHT22;7344;50.864;4.362;2023-04-24T02:28:04;9.50;99.90
14517;DHT22;7344;50.864;4.362;2023-04-24T02:30:29;9.50;99.90
14517;DHT22;7344;50.864;4.362;2023-04-24T02:32:55;9.50;99.90
14517;DHT22;7344;50.864;4.362;2023-04-24T02:35:21;9.50;99.90
14517;DHT22;7344;50.864;4.362;2023-04-24T02:37:47;9.50;99.90
14517;DHT22;7344;50.864;4.362;2023-04-24T02:40:13;9.50;99.90
14517;DHT22;7344;50.864;4.362;2023-04-24T02:42:38;9.50;99.90
14517;DHT22;7344;50.864;4.362;2023-04-24T02:45:04;9.50;99.90
14517;DHT22;7344;50.864;4.362;2023-04-24T02:47:30;9.40;99.90
14517;DHT22;7344;50.864;4.362;2023-04-24T02:49:56;9.40;99.90
14517;DHT22;7344;50.864;4.362;2023-04-24T02:52:21;9.40;99.90
14517;DHT22;7344;50.864;4.362;2023-04-24T02:54:47;9.40;99.90
14517;DHT22;7344;50.864;4.362;2023-04-24T02:57:13;9.40;99.90
14517;DHT22;7344;50.864;4.362;2023-04-24T02:59:38;9.40;99.90
14517;DHT22;7344;50.864;4.362;2023-04-24T03:02:04;9.40;99.90
14517;DHT22;7344;50.864;4.362;2023-04-24T03:04:31;9.40;99.90
14517;DHT22;7344;50.864;4.362;2023-04-24T03:06:57;9.40;99.90
14517;DHT22;7344;50.864;4.362;2023-04-24T03:09:23;9.40;99.90
14517;DHT22;7344;50.864;4.362;2023-04-24T03:11:49;9.30;99.90
14517;DHT22;7344;50.864;4.362;2023-04-24T03:14:15;9.30;99.90
14517;DHT22;7344;50.864;4.362;2023-04-24T03:16:41;9.40;99.90
14517;DHT22;7344;50.864;4.362;2023-04-24T03:19:07;9.40;99.90
14517;DHT22;7344;50.864;4.362;2023-04-24T03:21:33;9.40;99.90
14517;DHT22;7344;50.864;4.362;2023-04-24T03:23:58;9.30;99.90
14517;DHT22;7344;50.864;4.362;2023-04-24T03:26:24;9.30;99.90
14517;DHT22;7344;50.864;4.362;2023-04-24T03:28:50;9.20;99.90
14517;DHT22;7344;50.864;4.362;2023-04-24T03:31:15;9.20;99.90
14517;DHT22;7344;50.864;4.362;2023-04-24T03:33:42;9.10;99.90
14517;DHT22;7344;50.864;4.362;2023-04-24T03:36:07;9.10;99.90
14517;DHT22;7344;50.864;4.362;2023-04-24T03:38:33;9.10;99.90
14517;DHT22;7344;50.864;4.362;2023-04-24T03:40:58;9.10;99.90
14517;DHT22;7344;50.864;4.362;2023-04-24T03:43:24;9.10;99.90
14517;DHT22;7344;50.864;4.362;2023-04-24T03:45:50;9.10;99.90
14517;DHT22;7344;50.864;4.362;2023-04-24T03:48:16;9.10;99.90
14517;DHT22;7344;50.864;4.362;2023-04-24T03:50:41;9.00;99.90
14517;DHT22;7344;50.864;4.362;2023-04-24T03:53:07;9.10;99.90
14517;DHT22;7344;50.864;4.362;2023-04-24T03:55:33;9.10;99.90
14517;DHT22;7344;50.864;4.362;2023-04-24T03:57:59;9.10;99.90
14517;DHT22;7344;50.864;4.362;2023-04-24T04:00:24;9.10;99.90
14517;DHT22;7344;50.864;4.362;2023-04-24T04:02:51;9.10;99.90
14517;DHT22;7344;50.864;4.362;2023-04-24T04:05:16;9.20;99.90
14517;DHT22;7344;50.864;4.362;2023-04-24T04:07:42;9.20;99.90
14517;DHT22;7344;50.864;4.362;2023-04-24T04:10:08;9.20;99.90
14517;DHT22;7344;50.864;4.362;2023-04-24T04:12:34;9.30;99.90
14517;DHT22;7344;50.864;4.362;2023-04-24T04:14:59;9.20;99.90
14517;DHT22;7344;50.864;4.362;2023-04-24T04:17:25;9.30;99.90
14517;DHT22;7344;50.864;4.362;2023-04-24T04:19:51;9.30;99.90
14517;DHT22;7344;50.864;4.362;2023-04-24T04:22:16;9.30;99.90
14517;DHT22;7344;50.864;4.362;2023-04-24T04:24:42;9.30;99.90
14517;DHT22;7344;50.864;4.362;2023-04-24T04:27:08;9.30;99.90
14517;DHT22;7344;50.864;4.362;2023-04-24T04:29:34;9.30;99.90
14517;DHT22;7344;50.864;4.362;2023-04-24T04:32:00;9.30;99.90
14517;DHT22;7344;50.864;4.362;2023-04-24T04:34:26;9.30;99.90
14517;DHT22;7344;50.864;4.362;2023-04-24T04:36:52;9.30;99.90
14517;DHT22;7344;50.864;4.362;2023-04-24T04:39:18;9.30;99.90
14517;DHT22;7344;50.864;4.362;2023-04-24T04:41:44;9.30;99.90
14517;DHT22;7344;50.864;4.362;2023-04-24T04:44:11;9.40;99.90
14517;DHT22;7344;50.864;4.362;2023-04-24T04:46:38;9.30;99.90
14517;DHT22;7344;50.864;4.362;2023-04-24T04:49:04;9.20;99.90
14517;DHT22;7344;50.864;4.362;2023-04-24T04:51:29;9.20;99.90
14517;DHT22;7344;50.864;4.362;2023-04-24T04:53:56;9.20;99.90
14517;DHT22;7344;50.864;4.362;2023-04-24T04:56:22;9.20;99.90
14517;DHT22;7344;50.864;4.362;2023-04-24T04:58:47;9.20;99.90
14517;DHT22;7344;50.864;4.362;2023-04-24T05:01:13;9.20;99.90
14517;DHT22;7344;50.864;4.362;2023-04-24T05:03:39;9.20;99.90
14517;DHT22;7344;50.864;4.362;2023-04-24T05:06:05;9.20;99.90
14517;DHT22;7344;50.864;4.362;2023-04-24T05:08:31;9.20;99.90
14517;DHT22;7344;50.864;4.362;2023-04-24T05:10:56;9.20;99.90
14517;DHT22;7344;50.864;4.362;2023-04-24T05:13:22;9.10;99.90
14517;DHT22;7344;50.864;4.362;2023-04-24T05:15:47;9.10;99.90
14517;DHT22;7344;50.864;4.362;2023-04-24T05:18:13;9.10;99.90
14517;DHT22;7344;50.864;4.362;2023-04-24T05:20:39;9.10;99.90
14517;DHT22;7344;50.864;4.362;2023-04-24T05:23:04;9.10;99.90
14517;DHT22;7344;50.864;4.362;2023-04-24T05:25:30;9.10;99.90
14517;DHT22;7344;50.864;4.362;2023-04-24T05:28:00;9.10;99.90
14517;DHT22;7344;50.864;4.362;2023-04-24T05:30:26;9.20;99.90
14517;DHT22;7344;50.864;4.362;2023-04-24T05:32:52;9.20;99.90
14517;DHT22;7344;50.864;4.362;2023-04-24T05:35:17;9.20;99.90
14517;DHT22;7344;50.864;4.362;2023-04-24T05:37:44;9.10;99.90
14517;DHT22;7344;50.864;4.362;2023-04-24T05:40:10;9.10;99.90
14517;DHT22;7344;50.864;4.362;2023-04-24T05:42:36;9.10;99.90
14517;DHT22;7344;50.864;4.362;2023-04-24T05:45:02;9.10;99.90
14517;DHT22;7344;50.864;4.362;2023-04-24T05:47:28;9.10;99.90
14517;DHT22;7344;50.864;4.362;2023-04-24T05:49:54;9.00;99.90
14517;DHT22;7344;50.864;4.362;2023-04-24T05:52:19;9.10;99.90
14517;DHT22;7344;50.864;4.362;2023-04-24T05:54:45;9.10;99.90
14517;DHT22;7344;50.864;4.362;2023-04-24T05:57:11;9.00;99.90
14517;DHT22;7344;50.864;4.362;2023-04-24T05:59:37;9.00;99.90
14517;DHT22;7344;50.864;4.362;2023-04-24T06:02:07;8.90;99.90
14517;DHT22;7344;50.864;4.362;2023-04-24T06:04:33;8.90;99.90
14517;DHT22;7344;50.864;4.362;2023-04-24T06:06:59;8.90;99.90
14517;DHT22;7344;50.864;4.362;2023-04-24T06:09:25;8.90;99.90
14517;DHT22;7344;50.864;4.362;2023-04-24T06:11:51;9.00;99.90
14517;DHT22;7344;50.864;4.362;2023-04-24T06:14:19;9.00;99.90
14517;DHT22;7344;50.864;4.362;2023-04-24T06:16:45;8.90;99.90
14517;DHT22;7344;50.864;4.362;2023-04-24T06:19:10;8.90;99.90
14517;DHT22;7344;50.864;4.362;2023-04-24T06:21:36;8.90;99.90
14517;DHT22;7344;50.864;4.362;2023-04-24T06:24:02;8.90;99.90
14517;DHT22;7344;50.864;4.362;2023-04-24T06:26:29;8.90;99.90
14517;DHT22;7344;50.864;4.362;2023-04-24T06:28:54;8.90;99.90
14517;DHT22;7344;50.864;4.362;2023-04-24T06:31:20;9.00;99.90
14517;DHT22;7344;50.864;4.362;2023-04-24T06:33:46;8.90;99.90
14517;DHT22;7344;50.864;4.362;2023-04-24T06:36:12;9.00;99.90
14517;DHT22;7344;50.864;4.362;2023-04-24T06:38:38;8.90;99.90
14517;DHT22;7344;50.864;4.362;2023-04-24T06:41:03;9.00;99.90
14517;DHT22;7344;50.864;4.362;2023-04-24T06:43:31;9.00;99.90
14517;DHT22;7344;50.864;4.362;2023-04-24T06:45:57;9.10;99.90
14517;DHT22;7344;50.864;4.362;2023-04-24T06:48:24;9.20;99.90
14517;DHT22;7344;50.864;4.362;2023-04-24T06:50:50;9.20;99.90
14517;DHT22;7344;50.864;4.362;2023-04-24T06:53:16;9.30;99.90
14517;DHT22;7344;50.864;4.362;2023-04-24T06:55:42;9.30;99.90
14517;DHT22;7344;50.864;4.362;2023-04-24T06:58:09;9.30;99.90
14517;DHT22;7344;50.864;4.362;2023-04-24T07:00:34;9.40;99.90
14517;DHT22;7344;50.864;4.362;2023-04-24T07:03:00;9.40;99.90
14517;DHT22;7344;50.864;4.362;2023-04-24T07:05:26;9.40;99.90
14517;DHT22;7344;50.864;4.362;2023-04-24T07:07:51;9.40;99.90
14517;DHT22;7344;50.864;4.362;2023-04-24T07:10:17;9.50;99.90
14517;DHT22;7344;50.864;4.362;2023-04-24T07:12:43;9.40;99.90
14517;DHT22;7344;50.864;4.362;2023-04-24T07:15:09;9.50;99.90
14517;DHT22;7344;50.864;4.362;2023-04-24T07:17:35;9.60;99.90
14517;DHT22;7344;50.864;4.362;2023-04-24T07:20:04;9.60;99.90
14517;DHT22;7344;50.864;4.362;2023-04-24T07:22:30;9.70;99.90
14517;DHT22;7344;50.864;4.362;2023-04-24T07:24:55;10.10;99.90
14517;DHT22;7344;50.864;4.362;2023-04-24T07:27:21;10.40;99.90
14517;DHT22;7344;50.864;4.362;2023-04-24T07:29:46;10.30;99.90
14517;DHT22;7344;50.864;4.362;2023-04-24T07:32:12;10.20;99.90
14517;DHT22;7344;50.864;4.362;2023-04-24T07:34:38;10.40;99.90
14517;DHT22;7344;50.864;4.362;2023-04-24T07:37:03;10.40;99.90
14517;DHT22;7344;50.864;4.362;2023-04-24T07:39:29;10.50;99.90
14517;DHT22;7344;50.864;4.362;2023-04-24T07:41:55;11.00;99.90
14517;DHT22;7344;50.864;4.362;2023-04-24T07:44:20;11.50;99.90
14517;DHT22;7344;50.864;4.362;2023-04-24T07:46:46;11.80;99.90
14517;DHT22;7344;50.864;4.362;2023-04-24T07:49:12;11.70;93.00
14517;DHT22;7344;50.864;4.362;2023-04-24T07:51:38;11.50;93.50
14517;DHT22;7344;50.864;4.362;2023-04-24T07:54:04;11.20;99.90
14517;DHT22;7344;50.864;4.362;2023-04-24T07:56:33;11.00;99.90
14517;DHT22;7344;50.864;4.362;2023-04-24T07:58:59;10.70;99.90
14517;DHT22;7344;50.864;4.362;2023-04-24T08:01:26;10.70;99.90
14517;DHT22;7344;50.864;4.362;2023-04-24T08:03:52;10.90;99.90
14517;DHT22;7344;50.864;4.362;2023-04-24T08:06:17;11.40;99.90
14517;DHT22;7344;50.864;4.362;2023-04-24T08:08:43;11.50;99.90
14517;DHT22;7344;50.864;4.362;2023-04-24T08:11:09;11.30;95.10
14517;DHT22;7344;50.864;4.362;2023-04-24T08:13:34;11.20;99.90
14517;DHT22;7344;50.864;4.362;2023-04-24T08:16:00;11.10;99.90
14517;DHT22;7344;50.864;4.362;2023-04-24T08:18:26;11.10;99.90
14517;DHT22;7344;50.864;4.362;2023-04-24T08:20:51;11.10;99.90
14517;DHT22;7344;50.864;4.362;2023-04-24T08:23:17;11.20;99.90
14517;DHT22;7344;50.864;4.362;2023-04-24T08:25:43;11.50;99.90
14517;DHT22;7344;50.864;4.362;2023-04-24T08:28:09;12.30;92.70
14517;DHT22;7344;50.864;4.362;2023-04-24T08:30:36;12.70;62.00
14517;DHT22;7344;50.864;4.362;2023-04-24T08:33:02;12.90;45.70
14517;DHT22;7344;50.864;4.362;2023-04-24T08:35:27;12.50;48.50
14517;DHT22;7344;50.864;4.362;2023-04-24T08:37:53;12.30;47.20
14517;DHT22;7344;50.864;4.362;2023-04-24T08:40:26;12.20;45.90
14517;DHT22;7344;50.864;4.362;2023-04-24T08:42:54;12.10;35.20
14517;DHT22;7344;50.864;4.362;2023-04-24T08:45:21;12.00;50.90
14517;DHT22;7344;50.864;4.362;2023-04-24T08:47:47;12.60;41.70
14517;DHT22;7344;50.864;4.362;2023-04-24T08:50:14;13.40;16.10
14517;DHT22;7344;50.864;4.362;2023-04-24T08:52:42;14.00;1.00
14517;DHT22;7344;50.864;4.362;2023-04-24T08:55:08;15.00;1.00
14517;DHT22;7344;50.864;4.362;2023-04-24T08:57:33;16.40;1.00
14517;DHT22;7344;50.864;4.362;2023-04-24T09:00:01;17.10;1.00
14517;DHT22;7344;50.864;4.362;2023-04-24T09:02:27;17.50;1.00
14517;DHT22;7344;50.864;4.362;2023-04-24T09:04:55;17.40;1.00
14517;DHT22;7344;50.864;4.362;2023-04-24T09:07:23;17.10;1.00
14517;DHT22;7344;50.864;4.362;2023-04-24T09:09:50;17.50;1.00
14517;DHT22;7344;50.864;4.362;2023-04-24T09:12:17;17.90;99.90
14517;DHT22;7344;50.864;4.362;2023-04-24T09:14:44;18.40;99.90
14517;DHT22;7344;50.864;4.362;2023-04-24T09:17:11;17.90;1.00
14517;DHT22;7344;50.864;4.362;2023-04-24T09:19:36;17.20;99.90
14517;DHT22;7344;50.864;4.362;2023-04-24T09:22:06;16.60;99.90
14517;DHT22;7344;50.864;4.362;2023-04-24T09:24:33;17.20;1.00
14517;DHT22;7344;50.864;4.362;2023-04-24T09:26:59;17.80;99.90
14517;DHT22;7344;50.864;4.362;2023-04-24T09:29:25;16.90;42.10
14517;DHT22;7344;50.864;4.362;2023-04-24T09:31:50;15.80;1.00
14517;DHT22;7344;50.864;4.362;2023-04-24T09:34:22;15.10;1.00
14517;DHT22;7344;50.864;4.362;2023-04-24T09:36:48;13.90;1.00
14517;DHT22;7344;50.864;4.362;2023-04-24T09:39:15;13.60;1.00
14517;DHT22;7344;50.864;4.362;2023-04-24T09:42:01;13.60;1.00
14517;DHT22;7344;50.864;4.362;2023-04-24T09:44:28;13.40;1.00
14517;DHT22;7344;50.864;4.362;2023-04-24T09:46:55;14.20;1.00
14517;DHT22;7344;50.864;4.362;2023-04-24T09:49:29;15.00;1.00
14517;DHT22;7344;50.864;4.362;2023-04-24T09:52:08;15.70;1.00
14517;DHT22;7344;50.864;4.362;2023-04-24T09:54:35;16.10;1.00
14517;DHT22;7344;50.864;4.362;2023-04-24T09:57:02;15.80;1.00
14517;DHT22;7344;50.864;4.362;2023-04-24T09:59:28;15.60;99.90
14517;DHT22;7344;50.864;4.362;2023-04-24T10:01:53;15.70;1.00
14517;DHT22;7344;50.864;4.362;2023-04-24T10:04:23;16.10;1.00
14517;DHT22;7344;50.864;4.362;2023-04-24T10:06:51;16.20;51.50
14517;DHT22;7344;50.864;4.362;2023-04-24T10:09:21;16.00;99.90
14517;DHT22;7344;50.864;4.362;2023-04-24T10:11:50;15.90;99.90
14517;DHT22;7344;50.864;4.362;2023-04-24T10:14:24;16.20;1.00
14517;DHT22;7344;50.864;4.362;2023-04-24T10:16:53;16.00;1.00
14517;DHT22;7344;50.864;4.362;2023-04-24T10:19:19;15.60;1.00
14517;DHT22;7344;50.864;4.362;2023-04-24T10:21:45;15.30;99.90
14517;DHT22;7344;50.864;4.362;2023-04-24T10:24:18;14.70;1.00
14517;DHT22;7344;50.864;4.362;2023-04-24T10:26:46;14.10;1.00
14517;DHT22;7344;50.864;4.362;2023-04-24T10:29:16;13.50;1.00
14517;DHT22;7344;50.864;4.362;2023-04-24T10:31:42;13.50;1.00
14517;DHT22;7344;50.864;4.362;2023-04-24T10:34:11;13.80;1.00
14517;DHT22;7344;50.864;4.362;2023-04-24T10:36:39;14.20;1.00
14517;DHT22;7344;50.864;4.362;2023-04-24T10:39:09;15.10;1.00
14517;DHT22;7344;50.864;4.362;2023-04-24T10:41:38;15.30;99.90
14517;DHT22;7344;50.864;4.362;2023-04-24T10:44:13;15.40;1.00
14517;DHT22;7344;50.864;4.362;2023-04-24T10:46:46;15.50;1.00
14517;DHT22;7344;50.864;4.362;2023-04-24T10:49:28;15.40;1.00
14517;DHT22;7344;50.864;4.362;2023-04-24T10:51:54;15.80;1.00
14517;DHT22;7344;50.864;4.362;2023-04-24T10:54:33;15.50;1.00
14517;DHT22;7344;50.864;4.362;2023-04-24T10:59:43;14.70;1.00
14517;DHT22;7344;50.864;4.362;2023-04-24T11:02:09;14.10;1.00
14517;DHT22;7344;50.864;4.362;2023-04-24T11:04:35;14.20;1.00
14517;DHT22;7344;50.864;4.362;2023-04-24T11:07:04;14.50;1.00
14517;DHT22;7344;50.864;4.362;2023-04-24T11:09:32;14.40;1.00
14517;DHT22;7344;50.864;4.362;2023-04-24T11:12:06;14.40;1.00
14517;DHT22;7344;50.864;4.362;2023-04-24T11:17:37;14.20;1.00
14517;DHT22;7344;50.864;4.362;2023-04-24T11:20:16;14.50;1.00
14517;DHT22;7344;50.864;4.362;2023-04-24T11:22:41;14.70;1.00
14517;DHT22;7344;50.864;4.362;2023-04-24T11:25:08;14.70;1.00
14517;DHT22;7344;50.864;4.362;2023-04-24T11:27:41;15.10;1.00
14517;DHT22;7344;50.864;4.362;2023-04-24T11:30:08;15.10;99.90
14517;DHT22;7344;50.864;4.362;2023-04-24T11:35:03;14.70;1.00
14517;DHT22;7344;50.864;4.362;2023-04-24T11:37:39;14.90;99.90
14517;DHT22;7344;50.864;4.362;2023-04-24T11:40:12;14.70;1.00
14517;DHT22;7344;50.864;4.362;2023-04-24T11:42:40;14.90;1.00
14517;DHT22;7344;50.864;4.362;2023-04-24T11:47:33;15.70;99.90
14517;DHT22;7344;50.864;4.362;2023-04-24T11:50:00;15.90;99.90
14517;DHT22;7344;50.864;4.362;2023-04-24T11:52:26;15.90;99.90
14517;DHT22;7344;50.864;4.362;2023-04-24T11:54:52;16.10;99.90
14517;DHT22;7344;50.864;4.362;2023-04-24T11:57:23;16.40;75.70
14517;DHT22;7344;50.864;4.362;2023-04-24T11:59:49;16.60;1.00
14517;DHT22;7344;50.864;4.362;2023-04-24T12:02:25;16.30;1.00
14517;DHT22;7344;50.864;4.362;2023-04-24T12:04:55;15.70;99.90
14517;DHT22;7344;50.864;4.362;2023-04-24T12:07:22;16.10;99.90
14517;DHT22;7344;50.864;4.362;2023-04-24T12:09:57;16.40;99.90
14517;DHT22;7344;50.864;4.362;2023-04-24T12:12:28;15.80;1.00
14517;DHT22;7344;50.864;4.362;2023-04-24T12:14:55;15.40;1.00
14517;DHT22;7344;50.864;4.362;2023-04-24T12:17:29;15.50;49.40
14517;DHT22;7344;50.864;4.362;2023-04-24T12:20:14;15.50;99.90
14517;DHT22;7344;50.864;4.362;2023-04-24T12:22:44;15.70;99.90
14517;DHT22;7344;50.864;4.362;2023-04-24T12:25:18;15.70;1.00
14517;DHT22;7344;50.864;4.362;2023-04-24T12:27:44;15.80;99.90
14517;DHT22;7344;50.864;4.362;2023-04-24T12:30:13;16.00;1.00
14517;DHT22;7344;50.864;4.362;2023-04-24T12:32:44;15.80;99.90
14517;DHT22;7344;50.864;4.362;2023-04-24T12:35:10;15.70;99.90
14517;DHT22;7344;50.864;4.362;2023-04-24T12:37:36;15.80;1.00
14517;DHT22;7344;50.864;4.362;2023-04-24T12:40:07;15.80;29.90
14517;DHT22;7344;50.864;4.362;2023-04-24T12:42:34;15.70;1.00
14517;DHT22;7344;50.864;4.362;2023-04-24T12:45:01;15.70;1.00
14517;DHT22;7344;50.864;4.362;2023-04-24T12:47:27;15.50;1.00
14517;DHT22;7344;50.864;4.362;2023-04-24T12:49:54;15.30;1.00
14517;DHT22;7344;50.864;4.362;2023-04-24T12:52:23;15.50;1.00
14517;DHT22;7344;50.864;4.362;2023-04-24T12:54:54;15.30;1.00
14517;DHT22;7344;50.864;4.362;2023-04-24T12:57:20;15.30;99.90
14517;DHT22;7344;50.864;4.362;2023-04-24T12:59:46;15.80;1.00
14517;DHT22;7344;50.864;4.362;2023-04-24T13:02:12;15.70;1.00
14517;DHT22;7344;50.864;4.362;2023-04-24T13:04:37;16.00;1.00
14517;DHT22;7344;50.864;4.362;2023-04-24T13:07:04;16.40;99.90
14517;DHT22;7344;50.864;4.362;2023-04-24T13:09:30;16.50;88.10
14517;DHT22;7344;50.864;4.362;2023-04-24T13:11:57;16.60;1.00
14517;DHT22;7344;50.864;4.362;2023-04-24T13:14:23;16.50;99.90
14517;DHT22;7344;50.864;4.362;2023-04-24T13:16:49;16.10;99.90
14517;DHT22;7344;50.864;4.362;2023-04-24T13:19:15;16.10;99.90
14517;DHT22;7344;50.864;4.362;2023-04-24T13:21:40;16.20;99.90
14517;DHT22;7344;50.864;4.362;2023-04-24T13:24:06;15.70;99.90
14517;DHT22;7344;50.864;4.362;2023-04-24T13:26:33;15.30;99.90
14517;DHT22;7344;50.864;4.362;2023-04-24T13:28:59;15.30;1.00
14517;DHT22;7344;50.864;4.362;2023-04-24T13:31:24;15.30;1.00
14517;DHT22;7344;50.864;4.362;2023-04-24T13:33:50;15.40;99.90
14517;DHT22;7344;50.864;4.362;2023-04-24T13:36:16;15.50;99.90
14517;DHT22;7344;50.864;4.362;2023-04-24T13:38:43;15.50;1.00
14517;DHT22;7344;50.864;4.362;2023-04-24T13:41:10;15.80;1.00
14517;DHT22;7344;50.864;4.362;2023-04-24T13:43:35;15.70;1.00
14517;DHT22;7344;50.864;4.362;2023-04-24T13:46:01;15.80;99.90
14517;DHT22;7344;50.864;4.362;2023-04-24T13:48:29;15.60;1.00
14517;DHT22;7344;50.864;4.362;2023-04-24T13:50:54;15.50;1.00
14517;DHT22;7344;50.864;4.362;2023-04-24T13:53:20;15.50;1.00
14517;DHT22;7344;50.864;4.362;2023-04-24T13:55:46;15.60;1.00
14517;DHT22;7344;50.864;4.362;2023-04-24T13:58:11;15.90;1.00
14517;DHT22;7344;50.864;4.362;2023-04-24T14:00:37;15.90;99.90
14517;DHT22;7344;50.864;4.362;2023-04-24T14:03:03;16.00;99.90
14517;DHT22;7344;50.864;4.362;2023-04-24T14:05:29;16.30;1.00
14517;DHT22;7344;50.864;4.362;2023-04-24T14:07:54;16.40;16.40
14517;DHT22;7344;50.864;4.362;2023-04-24T14:10:20;16.40;1.00
14517;DHT22;7344;50.864;4.362;2023-04-24T14:12:46;16.40;99.90
14517;DHT22;7344;50.864;4.362;2023-04-24T14:15:12;16.50;1.00
14517;DHT22;7344;50.864;4.362;2023-04-24T14:17:38;16.40;99.90
14517;DHT22;7344;50.864;4.362;2023-04-24T14:20:05;16.40;1.00
14517;DHT22;7344;50.864;4.362;2023-04-24T14:22:31;16.60;1.00
14517;DHT22;7344;50.864;4.362;2023-04-24T14:24:56;16.30;1.00
14517;DHT22;7344;50.864;4.362;2023-04-24T14:27:23;16.30;99.90
14517;DHT22;7344;50.864;4.362;2023-04-24T14:29:49;16.20;1.00
14517;DHT22;7344;50.864;4.362;2023-04-24T14:32:15;15.90;99.90
14517;DHT22;7344;50.864;4.362;2023-04-24T14:34:40;15.50;1.00
14517;DHT22;7344;50.864;4.362;2023-04-24T14:37:07;15.30;1.00
14517;DHT22;7344;50.864;4.362;2023-04-24T14:39:32;15.00;1.00
14517;DHT22;7344;50.864;4.362;2023-04-24T14:41:58;14.80;99.90
14517;DHT22;7344;50.864;4.362;2023-04-24T14:44:24;14.70;99.90
14517;DHT22;7344;50.864;4.362;2023-04-24T14:46:50;14.70;99.90
14517;DHT22;7344;50.864;4.362;2023-04-24T14:49:15;14.50;24.50
14517;DHT22;7344;50.864;4.362;2023-04-24T14:51:41;14.50;99.90
14517;DHT22;7344;50.864;4.362;2023-04-24T14:54:08;14.40;99.90
14517;DHT22;7344;50.864;4.362;2023-04-24T14:56:33;14.40;99.90
14517;DHT22;7344;50.864;4.362;2023-04-24T14:58:59;14.50;99.90
14517;DHT22;7344;50.864;4.362;2023-04-24T15:01:25;14.50;99.90
14517;DHT22;7344;50.864;4.362;2023-04-24T15:03:50;14.40;99.90
14517;DHT22;7344;50.864;4.362;2023-04-24T15:06:16;14.50;99.90
14517;DHT22;7344;50.864;4.362;2023-04-24T15:08:41;14.60;1.00
14517;DHT22;7344;50.864;4.362;2023-04-24T15:11:08;14.80;1.00
14517;DHT22;7344;50.864;4.362;2023-04-24T15:13:34;14.80;1.00
14517;DHT22;7344;50.864;4.362;2023-04-24T15:16:00;14.80;1.00
14517;DHT22;7344;50.864;4.362;2023-04-24T15:18:25;14.50;18.50
14517;DHT22;7344;50.864;4.362;2023-04-24T15:20:53;14.30;99.90
14517;DHT22;7344;50.864;4.362;2023-04-24T15:23:18;14.30;1.00
14517;DHT22;7344;50.864;4.362;2023-04-24T15:25:44;14.30;1.00
14517;DHT22;7344;50.864;4.362;2023-04-24T15:28:10;14.40;1.00
14517;DHT22;7344;50.864;4.362;2023-04-24T15:30:35;14.50;99.90
14517;DHT22;7344;50.864;4.362;2023-04-24T15:33:01;14.60;1.00
14517;DHT22;7344;50.864;4.362;2023-04-24T15:35:27;14.60;99.90
14517;DHT22;7344;50.864;4.362;2023-04-24T15:37:53;14.70;1.00
14517;DHT22;7344;50.864;4.362;2023-04-24T15:40:18;14.60;90.70
14517;DHT22;7344;50.864;4.362;2023-04-24T15:42:45;14.60;84.10
14517;DHT22;7344;50.864;4.362;2023-04-24T15:45:11;14.70;99.90
14517;DHT22;7344;50.864;4.362;2023-04-24T15:47:37;14.90;99.90
14517;DHT22;7344;50.864;4.362;2023-04-24T15:50:03;15.10;99.90
14517;DHT22;7344;50.864;4.362;2023-04-24T15:52:29;15.10;1.00
14517;DHT22;7344;50.864;4.362;2023-04-24T15:54:55;14.70;1.00
14517;DHT22;7344;50.864;4.362;2023-04-24T15:57:21;14.50;1.00
14517;DHT22;7344;50.864;4.362;2023-04-24T15:59:46;14.50;99.90
14517;DHT22;7344;50.864;4.362;2023-04-24T16:02:13;14.50;56.20
14517;DHT22;7344;50.864;4.362;2023-04-24T16:04:47;14.40;62.70